Station PTIM4 - 9099004 - Point Iroquois, MI Image indicating link to RSS feed of recent meteorological observations for station PTIM4


Conditions at PTIM4 as of
(1:00 pm EDT)
1700 GMT on 09/01/2026:
     

Click on the graph icon in the table below to see a time series plot of the last five days of that observation.

5-day plot - Wind Direction Wind Direction (WDIR):SSE ( 150 deg true )
5-day plot - Wind Speed Wind Speed (WSPD): 1.9 kts
5-day plot - Wind Gust Wind Gust (GST): 4.1 kts
5-day plot - Atmospheric Pressure Atmospheric Pressure (PRES):29.93 in
5-day plot - Pressure Tendency Pressure Tendency (PTDY):+0.01 in ( Rising )
5-day plot - Air Temperature Air Temperature (ATMP): 73.0 °F
5-day plot - Wind Speed at 10 Meters Wind Speed at 10 meters (WSPD10M): 1.9 kts
5-day plot - Wind Speed at 20 Meters Wind Speed at 20 meters (WSPD20M): 3.9 kts
5-day plot -  Wind Speed, Wind Gust and Atmospheric Pressure Combined plot of Wind Speed, Gust, and Air Pressure
NOS Water Level Observation Network Water Level
Previous observations
TIME
(EDT)
5-day plot - Wind Direction
WDIR
 
5-day plot - Wind Speed
WSPD
kts
5-day plot - Wind Gust
GST
kts
5-day plot - Wave Height
WVHT
ft
5-day plot - Dominant Wave Period
DPD
sec
5-day plot - Average Wave Period
APD
sec
5-day plot - Mean Wave Direction
MWD
 
5-day plot - Atmospheric Pressure
PRES
in
5-day plot - Pressure Tendency
PTDY
in
5-day plot - Air Temperature
ATMP
°F
5-day plot - Water Temperature
WTMP
°F
5-day plot - Dew Point
DEWP
°F
5-day plot - Salinity
SAL
psu
5-day plot - Visibility
VIS
nmi
5-day plot - Tide (above MLLW)
TIDE
ft
2026-09-01 12:54 pmENE 4.1 7.0----29.93- 69.3-----
2026-09-01 12:48 pmENE 4.1 6.0----29.93-------
2026-09-01 12:42 pm E 4.1 5.1----29.93-------
2026-09-01 12:36 pm E 1.9 4.1----29.93-------
2026-09-01 12:30 pmENE 1.9 5.1----29.93- 68.4-----
2026-09-01 12:24 pm E 4.1 5.1----29.93- 68.4-----
2026-09-01 12:18 pm E 2.9 5.1----29.93-------
2026-09-01 12:12 pmENE 4.1 5.1----29.93-------
2026-09-01 12:06 pmENE 2.9 5.1----29.93-------
2026-09-01 12:00 pm E 4.1 5.1----29.93+0.00 68.2-----
2026-09-01 11:54 am E 1.9 4.1----29.93- 68.2-----
2026-09-01 11:48 amESE 2.9 5.1----29.93- 68.4-----
2026-09-01 11:42 amESE 1.9 4.1----29.93- 68.5-----
2026-09-01 11:36 am E 4.1 6.0----29.92- 68.2-----
2026-09-01 11:30 amESE 4.1 6.0----29.92- 67.8-----
2026-09-01 11:24 amESE 4.1 7.0----29.92- 67.8-----
2026-09-01 11:18 amESE 5.1 6.0----29.92-------
2026-09-01 11:12 amESE 4.1 7.0----29.92-------
2026-09-01 11:06 amESE 5.1 7.0----29.91-------
2026-09-01 11:00 amESE 4.1 7.0----29.91+0.00 67.6-----
2026-09-01 10:54 amESE 5.1 7.0----29.91- 67.5-----
2026-09-01 10:48 amESE 4.1 6.0----29.91-------
2026-09-01 10:42 amESE 4.1 6.0----29.91-------
2026-09-01 10:36 amESE 4.1 5.1----29.92-------
2026-09-01 10:30 am E 4.1 5.1----29.92- 67.3-----
2026-09-01 10:24 am E 4.1 4.1----29.92- 67.3-----
2026-09-01 10:18 am E 2.9 4.1----29.92-------
2026-09-01 10:12 am E 1.9 2.9----29.92-------
2026-09-01 10:06 am E 1.9 2.9----29.92-------
2026-09-01 10:00 am- 0.0 1.0----29.92+0.02 67.5-----
2026-09-01 09:54 am- 0.0 1.0----29.92- 67.5-----
2026-09-01 09:48 am- 0.0 1.0----29.93- 66.9-----
2026-09-01 09:42 am- 0.0 1.0----29.93- 67.1-----
2026-09-01 09:36 am- 0.0 0.0----29.93- 67.3-----
2026-09-01 09:30 am- 0.0 0.0----29.93- 67.3-----
2026-09-01 09:24 am- 0.0 0.0----29.93- 66.9-----
2026-09-01 09:18 am- 0.0 0.0----29.93-------
2026-09-01 09:12 am- 0.0 1.0----29.93-------
2026-09-01 09:06 am- 0.0 1.0----29.93-------
2026-09-01 09:00 am- 0.0 1.9----29.93+0.02 66.7-----
2026-09-01 08:54 am NW 1.9 2.9----29.93- 66.7-----
2026-09-01 08:48 am NW 1.9 2.9----29.93-------
2026-09-01 08:42 amWNW 1.0 1.9----29.93-------
2026-09-01 08:36 am- 0.0 1.0----29.93-------
2026-09-01 08:30 am- 0.0 1.0----29.92- 67.1-----
2026-09-01 08:24 amSSE 1.0 1.9----29.92- 66.9-----
2026-09-01 08:18 am- 0.0 0.0----29.92-------
2026-09-01 08:12 am- 0.0 0.0----29.92-------
2026-09-01 08:06 am- 0.0 1.0----29.92-------
2026-09-01 08:00 am- 0.0 0.0----29.92+0.02 66.6-----
2026-09-01 07:54 am- 0.0 1.0----29.92- 66.6-----
2026-09-01 07:48 am- 0.0 1.0----29.92- 66.6-----
2026-09-01 07:42 am- 0.0 1.0----29.91- 66.6-----
2026-09-01 07:36 am- 0.0 1.0----29.91- 66.6-----
2026-09-01 07:30 am- 0.0 1.0----29.91- 66.4-----
2026-09-01 07:24 am- 0.0 1.0----29.91- 66.4-----
2026-09-01 07:18 am- 0.0 1.9----29.91-------
2026-09-01 07:12 am- 0.0 1.0----29.91-------
2026-09-01 07:06 am- 0.0 1.0----29.91-------
2026-09-01 07:00 am- 0.0 1.0----29.90+0.02 66.2-----
2026-09-01 06:54 am- 0.0 1.0----29.90- 66.2-----
2026-09-01 06:48 am- 0.0 1.0----29.90- 66.2-----
2026-09-01 06:42 am- 0.0 0.0----29.90- 66.2-----
2026-09-01 06:36 am- 0.0 0.0----29.91- 66.2-----
2026-09-01 06:30 am- 0.0 0.0----29.91- 66.2-----
2026-09-01 06:24 am- 0.0 0.0----29.91- 66.2-----
2026-09-01 06:18 am- 0.0 0.0----29.91-------
2026-09-01 06:12 am- 0.0 0.0----29.91-------
2026-09-01 06:06 am- 0.0 0.0----29.91-------
2026-09-01 06:00 am- 0.0 1.0----29.91- 66.4-----
2026-09-01 05:54 am- 0.0 0.0----29.91- 66.4-----
2026-09-01 05:48 am- 0.0 0.0----29.91- 66.4-----
2026-09-01 05:42 am- 0.0 0.0----29.91- 66.4-----
2026-09-01 05:36 am- 0.0 1.0----29.91- 66.4-----
2026-09-01 05:30 am- 0.0 0.0----29.91- 66.6-----
2026-09-01 05:24 am- 0.0 0.0----29.91- 66.6-----
2026-09-01 05:18 am- 0.0 1.0----29.91-------
2026-09-01 05:12 am- 0.0 1.0----29.90-------
2026-09-01 05:06 am- 0.0 0.0----29.90-------
2026-09-01 05:00 am- 0.0 0.0----29.90+0.02 66.6-----
2026-09-01 04:54 am- 0.0 0.0----29.90- 66.6-----
2026-09-01 04:48 am- 0.0 0.0----29.90-------
2026-09-01 04:42 am- 0.0 0.0----29.90-------
2026-09-01 04:36 am- 0.0 0.0----29.89-------
2026-09-01 04:30 am- 0.0 1.0----29.89- 66.4-----
2026-09-01 04:24 am- 0.0 1.0----29.89- 66.4-----
2026-09-01 04:18 am- 0.0 0.0----29.89-------
2026-09-01 04:12 am- 0.0 0.0----29.89-------
2026-09-01 04:06 am- 0.0 1.0----29.89-------
2026-09-01 04:00 am- 0.0 1.9----29.88+0.01 66.7-----
2026-09-01 03:54 am E 1.0 2.9----29.89- 66.7-----
2026-09-01 03:48 am E 1.9 2.9----29.89- 66.6-----
2026-09-01 03:42 am E 1.0 1.9----29.89- 66.6-----
2026-09-01 03:36 am- 0.0 0.0----29.89- 66.7-----
2026-09-01 03:30 am- 0.0 0.0----29.89- 66.7-----
2026-09-01 03:24 am- 0.0 0.0----29.89- 66.7-----
2026-09-01 03:18 am- 0.0 0.0----29.89- 66.7-----
2026-09-01 03:12 am- 0.0 0.0----29.89- 66.6-----
2026-09-01 03:06 am- 0.0 0.0----29.89- 66.7-----
2026-09-01 03:00 am- 0.0 1.0------ 66.7-----
2026-09-01 02:54 am- 0.0 0.0------ 66.7-----
2026-09-01 02:48 am- 0.0 1.0----29.89- 66.7-----
2026-09-01 02:42 am- 0.0 0.0----29.89- 66.9-----
2026-09-01 02:36 am- 0.0 1.9----29.88- 66.9-----
2026-09-01 02:30 am- 0.0 1.9----29.88-------
2026-09-01 02:24 am SE 1.9 2.9----29.88-------
2026-09-01 02:18 am SE 1.0 1.9----29.88-------
2026-09-01 02:12 am- 0.0 2.9----29.88-------
2026-09-01 02:06 amESE 1.9 2.9----29.88-------
2026-09-01 02:00 amESE 1.9 4.1----29.88-0.01 66.9-----
2026-09-01 01:54 am SE 1.9 5.1----29.88- 66.9-----
2026-09-01 01:48 amESE 2.9 7.0----29.88- 66.9-----
2026-09-01 01:42 amESE 4.1 6.0----29.88- 66.9-----
2026-09-01 01:36 amESE 5.1 6.0----29.88- 66.9-----
2026-09-01 01:30 amESE 2.9 6.0----29.88-------
2026-09-01 01:24 amESE 4.1 6.0----29.88-------
2026-09-01 01:18 am SE 4.1 7.0----29.88-------
2026-09-01 01:12 am SE 2.9 5.1----29.88-------
2026-09-01 01:06 am SE 4.1 7.0----29.88-------
2026-09-01 01:00 amESE 4.1 5.1----29.88-0.01 67.3-----
2026-09-01 12:54 am SE 1.9 5.1----29.88- 67.1-----
2026-09-01 12:48 am SE 4.1 5.1----29.88- 67.1-----
2026-09-01 12:42 amESE 4.1 6.0----29.88- 67.1-----
2026-09-01 12:36 am SE 2.9 6.0----29.88- 67.1-----
2026-09-01 12:30 amESE 4.1 6.0----29.88- 67.1-----
2026-09-01 12:24 amESE 5.1 8.0----29.88- 67.1-----
2026-09-01 12:18 amESE 6.0 8.9----29.88-------
2026-09-01 12:12 amESE 6.0 8.9----29.87-------
2026-09-01 12:06 amESE 5.1 8.9----29.88-------
2026-09-01 12:00 am SE 6.0 9.9----29.88-0.01 67.1-----
2026-08-31 11:54 pm SE 6.0 9.9----29.88- 67.1-----
2026-08-31 11:48 pmESE 6.0 8.9----29.88-------
2026-08-31 11:42 pmESE 6.0 8.0----29.88-------
2026-08-31 11:36 pmESE 5.1 8.0----29.88-------
2026-08-31 11:30 pmESE 6.0 8.9----29.88- 67.1-----
2026-08-31 11:24 pmESE 5.1 8.9----29.88- 67.1-----
2026-08-31 11:18 pmESE 5.1 8.9------------
2026-08-31 11:12 pmESE 5.1 8.9------------
2026-08-31 11:06 pmESE 6.0 8.9------------
2026-08-31 11:00 pmESE 5.1 8.0----29.89+0.01 67.1-----
2026-08-31 10:54 pmESE 6.0 8.0----29.89- 67.1-----
2026-08-31 10:48 pmESE 5.1 9.9----29.90- 67.1-----
2026-08-31 10:42 pmESE 6.0 8.9----29.89- 67.1-----
2026-08-31 10:36 pmESE 5.1 8.0----29.90- 66.9-----
2026-08-31 10:30 pmESE 6.0 8.9----29.90- 66.9-----
2026-08-31 10:24 pmESE 6.0 9.9----29.90- 66.9-----
2026-08-31 10:18 pmESE 6.0 8.9----29.89-------
2026-08-31 10:12 pmESE 8.0 12.0----29.89-------
2026-08-31 10:06 pmESE 7.0 9.9----29.89-------
2026-08-31 10:00 pmESE 7.0 11.1----29.89+0.01 67.1-----
2026-08-31 09:54 pmESE 7.0 11.1----29.89- 67.1-----
2026-08-31 09:48 pmESE 8.0 12.0----29.89- 67.1-----
2026-08-31 09:42 pmESE 7.0 11.1----29.89- 67.1-----
2026-08-31 09:36 pm SE 6.0 11.1----29.90- 67.1-----
2026-08-31 09:30 pmESE 6.0 11.1----29.90- 67.1-----
2026-08-31 09:24 pm SE 6.0 11.1----29.90- 67.3-----
2026-08-31 09:18 pmESE 6.0 11.1----29.90-------
2026-08-31 09:12 pm SE 5.1 11.1----29.90-------
2026-08-31 09:06 pmESE 7.0 11.1----29.90-------
2026-08-31 09:00 pm-------29.89+0.00 67.3-----
2026-08-31 08:54 pm-------29.89- 67.3-----
2026-08-31 08:48 pm SE 7.0 12.0----29.89-------
2026-08-31 08:42 pmESE 8.0 13.0----29.89-------
2026-08-31 08:36 pmESE 8.0 14.0----29.89-------
2026-08-31 08:30 pmESE 8.0 13.0----29.89- 67.5-----
2026-08-31 08:24 pmESE 9.9 13.0----29.89- 67.5-----
2026-08-31 08:18 pmESE 8.0 12.0----29.88-------
2026-08-31 08:12 pmESE 7.0 12.0----29.88-------
2026-08-31 08:06 pmESE 7.0 11.1----29.88-------
2026-08-31 08:00 pmESE 7.0 11.1----29.88+0.00 67.5-----
2026-08-31 07:54 pmESE 7.0 9.9----29.88- 67.3-----
2026-08-31 07:48 pmESE 6.0 9.9----29.88-------
2026-08-31 07:42 pmESE 6.0 8.9----29.88-------
2026-08-31 07:36 pmESE 6.0 11.1----29.88-------
2026-08-31 06:48 pmESE 7.0 11.1----29.88- 67.1-----
2026-08-31 06:42 pmESE 9.9 12.0----29.88- 67.1-----
2026-08-31 06:36 pmESE 8.9 13.0----29.88- 67.1-----
2026-08-31 06:30 pmESE 11.1 15.0----29.88- 67.1-----
2026-08-31 06:24 pmESE 11.1 15.0----29.89- 67.1-----
2026-08-31 06:18 pmESE 9.9 14.0----29.89- 67.1-----
2026-08-31 06:12 pm E 13.0 15.9----29.89- 67.3-----
2026-08-31 06:06 pm E 14.0 15.9----29.89- 67.3-----
2026-08-31 06:00 pmESE 12.0 15.0----29.89-0.01 67.3-----
2026-08-31 05:54 pmESE 9.9 14.0----29.90- 67.3-----
2026-08-31 05:48 pmESE 11.1 13.0----29.89-------
2026-08-31 05:42 pmESE 9.9 13.0----29.89-------
2026-08-31 05:36 pmESE 9.9 13.0----29.89-------
2026-08-31 05:30 pm E 9.9 13.0----29.89- 67.1-----
2026-08-31 05:24 pmESE 9.9 12.0----29.88- 67.1-----
2026-08-31 05:18 pm E 9.9 14.0----29.89-------
2026-08-31 05:12 pmESE 9.9 12.0----29.89-------
2026-08-31 05:06 pm E 11.1 12.0----29.89-------
2026-08-31 05:00 pmESE 8.9 12.0----29.89-0.04 67.1-----
2026-08-31 04:54 pmESE 7.0 12.0----29.88- 67.1-----
2026-08-31 04:48 pmESE 9.9 13.0----29.88- 66.9-----
2026-08-31 04:42 pmESE 8.9 12.0----29.88- 66.9-----
2026-08-31 04:36 pmESE 7.0 9.9----29.88- 66.9-----
2026-08-31 04:30 pmESE 6.0 8.9----29.89-------
2026-08-31 04:24 pmESE 6.0 12.0----29.89-------
2026-08-31 04:18 pmESE 9.9 13.0----29.89-------
2026-08-31 04:12 pm E 12.0 13.0----29.89-------
2026-08-31 04:06 pm E 12.0 14.0----29.90-------
2026-08-31 04:00 pm E 12.0 13.0----29.90-0.03 66.7-----
2026-08-31 03:54 pm E 12.0 13.0----29.90- 66.7-----
2026-08-31 03:48 pmESE 8.9 9.9----29.90- 66.6-----
2026-08-31 03:42 pm E 8.9 9.9----29.91- 66.6-----
2026-08-31 03:36 pmESE 6.0 8.9----29.91- 66.7-----
2026-08-31 03:30 pmESE 7.0 12.0----29.90- 66.7-----
2026-08-31 03:24 pmESE 8.9 12.0----29.90- 66.6-----
2026-08-31 03:18 pm E 12.0 15.0----29.90-------
2026-08-31 03:12 pm E 13.0 15.0----29.90-------
2026-08-31 03:06 pmESE 8.9 13.0----29.91-------
2026-08-31 03:00 pmESE 9.9 13.0----29.91-0.04 66.4-----
2026-08-31 02:54 pm E 12.0 15.0----29.91- 66.4-----
2026-08-31 02:48 pm E 13.0 14.0----29.91- 66.2-----
2026-08-31 02:42 pm E 12.0 15.0----29.91- 66.2-----
2026-08-31 02:36 pm E 14.0 15.0----29.91- 66.0-----
2026-08-31 02:30 pm E 13.0 15.0----29.92- 66.0-----
2026-08-31 02:24 pm E 12.0 14.0----29.93- 66.0-----
2026-08-31 02:18 pm E 13.0 14.0----29.93-------
2026-08-31 02:12 pm E 12.0 14.0----29.93-------
2026-08-31 02:06 pm E 8.9 12.0----29.93-------
2026-08-31 02:00 pm E 9.9 12.0----29.93-0.03 66.2-----
2026-08-31 01:54 pm E 11.1 14.0----29.93- 66.2-----
2026-08-31 01:48 pm E 11.1 13.0----29.92-------
2026-08-31 01:42 pm E 12.0 14.0----29.93-------
2026-08-31 01:36 pm E 12.0 13.0----29.93-------
2026-08-31 01:30 pm E 12.0 13.0----29.93- 66.0-----
2026-08-31 01:24 pm E 11.1 13.0----29.93- 66.0-----
2026-08-31 01:18 pm E 11.1 12.0----29.93-------
2026-08-31 01:12 pm E 11.1 12.0----29.93-------
2026-08-31 01:06 pm E 9.9 12.0----29.93-------
2026-08-31 01:00 pm E 11.1 12.0----29.93-0.03 65.8-----
2026-08-31 12:54 pm E 9.9 12.0----29.93- 65.8-----